sensor_id;sensor_type;location;lat;lon;timestamp;pressure;altitude;pressure_sealevel;temperature;humidity
45050;BME280;61798;48.048;-1.928;2023-02-15T00:01:08;101790.06;;;0.66;100.00
45050;BME280;61798;48.048;-1.928;2023-02-15T00:03:16;101804.22;;;0.65;100.00
45050;BME280;61798;48.048;-1.928;2023-02-15T00:05:22;101763.91;;;0.48;100.00
45050;BME280;61798;48.048;-1.928;2023-02-15T00:07:28;101738.00;;;0.55;100.00
45050;BME280;61798;48.048;-1.928;2023-02-15T00:09:34;101791.22;;;0.90;100.00
45050;BME280;61798;48.048;-1.928;2023-02-15T00:11:40;101805.16;;;0.92;100.00
45050;BME280;61798;48.048;-1.928;2023-02-15T00:13:47;101762.34;;;0.73;100.00
45050;BME280;61798;48.048;-1.928;2023-02-15T00:15:53;101782.38;;;1.04;100.00
45050;BME280;61798;48.048;-1.928;2023-02-15T00:17:59;101787.28;;;1.10;100.00
45050;BME280;61798;48.048;-1.928;2023-02-15T00:20:06;101794.44;;;1.08;100.00
45050;BME280;61798;48.048;-1.928;2023-02-15T00:22:12;101770.81;;;1.07;100.00
45050;BME280;61798;48.048;-1.928;2023-02-15T00:24:18;101776.16;;;1.05;100.00
45050;BME280;61798;48.048;-1.928;2023-02-15T00:26:25;101773.53;;;1.05;100.00
45050;BME280;61798;48.048;-1.928;2023-02-15T00:28:31;101771.41;;;0.97;100.00
45050;BME280;61798;48.048;-1.928;2023-02-15T00:30:37;101754.28;;;0.90;100.00
45050;BME280;61798;48.048;-1.928;2023-02-15T00:32:43;101750.78;;;0.89;100.00
45050;BME280;61798;48.048;-1.928;2023-02-15T00:34:49;101729.09;;;0.71;100.00
45050;BME280;61798;48.048;-1.928;2023-02-15T00:36:55;101779.44;;;0.96;100.00
45050;BME280;61798;48.048;-1.928;2023-02-15T00:39:01;101779.44;;;0.96;100.00
45050;BME280;61798;48.048;-1.928;2023-02-15T00:41:08;101789.59;;;1.02;100.00
45050;BME280;61798;48.048;-1.928;2023-02-15T00:43:14;101739.19;;;0.64;100.00
45050;BME280;61798;48.048;-1.928;2023-02-15T00:45:20;101768.81;;;0.82;100.00
45050;BME280;61798;48.048;-1.928;2023-02-15T00:47:26;101753.47;;;0.47;100.00
45050;BME280;61798;48.048;-1.928;2023-02-15T00:49:32;101751.69;;;0.47;100.00
45050;BME280;61798;48.048;-1.928;2023-02-15T00:51:38;101748.97;;;0.34;100.00
45050;BME280;61798;48.048;-1.928;2023-02-15T00:53:45;101763.19;;;0.46;100.00
45050;BME280;61798;48.048;-1.928;2023-02-15T00:55:51;101777.66;;;0.54;100.00
45050;BME280;61798;48.048;-1.928;2023-02-15T00:57:57;101760.47;;;0.33;100.00
45050;BME280;61798;48.048;-1.928;2023-02-15T01:00:03;101775.44;;;0.33;100.00
45050;BME280;61798;48.048;-1.928;2023-02-15T01:02:09;101776.69;;;0.27;100.00
45050;BME280;61798;48.048;-1.928;2023-02-15T01:04:15;101771.13;;;0.17;100.00
45050;BME280;61798;48.048;-1.928;2023-02-15T01:06:21;101753.88;;;0.26;100.00
45050;BME280;61798;48.048;-1.928;2023-02-15T01:08:27;101760.09;;;0.39;100.00
45050;BME280;61798;48.048;-1.928;2023-02-15T01:10:34;101770.88;;;0.49;100.00
45050;BME280;61798;48.048;-1.928;2023-02-15T01:12:41;101743.44;;;0.24;100.00
45050;BME280;61798;48.048;-1.928;2023-02-15T01:14:47;101742.78;;;0.20;100.00
45050;BME280;61798;48.048;-1.928;2023-02-15T01:16:52;101680.06;;;-0.17;100.00
45050;BME280;61798;48.048;-1.928;2023-02-15T01:18:59;101715.63;;;-0.09;100.00
45050;BME280;61798;48.048;-1.928;2023-02-15T01:21:13;101749.59;;;0.10;100.00
45050;BME280;61798;48.048;-1.928;2023-02-15T01:23:19;101763.59;;;0.25;100.00
45050;BME280;61798;48.048;-1.928;2023-02-15T01:25:26;101752.47;;;0.20;100.00
45050;BME280;61798;48.048;-1.928;2023-02-15T01:27:32;101741.22;;;0.03;100.00
45050;BME280;61798;48.048;-1.928;2023-02-15T01:29:38;101750.03;;;0.17;100.00
45050;BME280;61798;48.048;-1.928;2023-02-15T01:31:43;101744.94;;;0.28;100.00
45050;BME280;61798;48.048;-1.928;2023-02-15T01:33:49;101748.91;;;0.21;100.00
45050;BME280;61798;48.048;-1.928;2023-02-15T01:35:57;101755.88;;;0.22;100.00
45050;BME280;61798;48.048;-1.928;2023-02-15T01:38:03;101749.66;;;0.08;100.00
45050;BME280;61798;48.048;-1.928;2023-02-15T01:40:13;101757.28;;;0.28;100.00
45050;BME280;61798;48.048;-1.928;2023-02-15T01:42:23;101760.59;;;0.31;100.00
45050;BME280;61798;48.048;-1.928;2023-02-15T01:44:51;101774.59;;;0.47;100.00
45050;BME280;61798;48.048;-1.928;2023-02-15T01:46:57;101771.94;;;0.32;100.00
45050;BME280;61798;48.048;-1.928;2023-02-15T01:49:11;101744.06;;;0.00;100.00
45050;BME280;61798;48.048;-1.928;2023-02-15T01:51:22;101754.00;;;0.09;100.00
45050;BME280;61798;48.048;-1.928;2023-02-15T01:53:33;101710.91;;;-0.19;100.00
45050;BME280;61798;48.048;-1.928;2023-02-15T01:55:43;101750.91;;;0.03;100.00
45050;BME280;61798;48.048;-1.928;2023-02-15T01:57:51;101739.53;;;0.02;100.00
45050;BME280;61798;48.048;-1.928;2023-02-15T01:59:59;101725.00;;;0.09;100.00
45050;BME280;61798;48.048;-1.928;2023-02-15T02:02:07;101743.53;;;0.23;100.00
45050;BME280;61798;48.048;-1.928;2023-02-15T02:04:18;101752.28;;;0.38;100.00
45050;BME280;61798;48.048;-1.928;2023-02-15T02:06:29;101745.84;;;0.42;100.00
45050;BME280;61798;48.048;-1.928;2023-02-15T02:08:36;101729.91;;;0.16;100.00
45050;BME280;61798;48.048;-1.928;2023-02-15T02:10:41;101712.31;;;0.02;100.00
45050;BME280;61798;48.048;-1.928;2023-02-15T02:12:50;101739.78;;;0.12;100.00
45050;BME280;61798;48.048;-1.928;2023-02-15T02:14:58;101727.09;;;-0.11;100.00
45050;BME280;61798;48.048;-1.928;2023-02-15T02:20:28;101728.31;;;-0.02;100.00
45050;BME280;61798;48.048;-1.928;2023-02-15T02:38:26;101726.31;;;0.31;100.00
45050;BME280;61798;48.048;-1.928;2023-02-15T02:41:00;101708.91;;;0.98;100.00
45050;BME280;61798;48.048;-1.928;2023-02-15T02:43:26;101703.41;;;1.01;100.00
45050;BME280;61798;48.048;-1.928;2023-02-15T02:45:36;101713.03;;;1.02;100.00
45050;BME280;61798;48.048;-1.928;2023-02-15T02:47:48;101685.66;;;0.90;100.00
45050;BME280;61798;48.048;-1.928;2023-02-15T02:50:06;101694.31;;;1.05;100.00
45050;BME280;61798;48.048;-1.928;2023-02-15T02:54:40;101664.31;;;0.93;100.00
45050;BME280;61798;48.048;-1.928;2023-02-15T02:56:47;101695.78;;;0.96;100.00
45050;BME280;61798;48.048;-1.928;2023-02-15T02:59:16;101695.59;;;0.58;100.00
45050;BME280;61798;48.048;-1.928;2023-02-15T03:03:47;101678.56;;;0.49;100.00
45050;BME280;61798;48.048;-1.928;2023-02-15T03:05:59;101691.53;;;0.67;100.00
45050;BME280;61798;48.048;-1.928;2023-02-15T03:08:06;101691.75;;;0.77;100.00
45050;BME280;61798;48.048;-1.928;2023-02-15T03:10:15;101657.09;;;0.69;100.00
45050;BME280;61798;48.048;-1.928;2023-02-15T03:12:33;101676.66;;;0.92;100.00
45050;BME280;61798;48.048;-1.928;2023-02-15T03:14:44;101673.63;;;0.99;100.00
45050;BME280;61798;48.048;-1.928;2023-02-15T03:16:52;101663.16;;;0.97;100.00
45050;BME280;61798;48.048;-1.928;2023-02-15T03:19:09;101658.31;;;1.04;100.00
45050;BME280;61798;48.048;-1.928;2023-02-15T03:21:16;101655.66;;;1.04;100.00
45050;BME280;61798;48.048;-1.928;2023-02-15T03:23:28;101662.25;;;1.11;100.00
45050;BME280;61798;48.048;-1.928;2023-02-15T03:25:43;101623.25;;;0.89;100.00
45050;BME280;61798;48.048;-1.928;2023-02-15T03:28:07;101646.59;;;0.95;100.00
45050;BME280;61798;48.048;-1.928;2023-02-15T03:30:17;101647.25;;;0.99;100.00
45050;BME280;61798;48.048;-1.928;2023-02-15T03:32:25;101661.59;;;1.08;100.00
45050;BME280;61798;48.048;-1.928;2023-02-15T03:34:34;101650.59;;;1.01;100.00
45050;BME280;61798;48.048;-1.928;2023-02-15T03:36:57;101657.06;;;1.10;100.00
45050;BME280;61798;48.048;-1.928;2023-02-15T03:41:24;101649.88;;;0.99;100.00
45050;BME280;61798;48.048;-1.928;2023-02-15T03:45:52;101657.81;;;0.99;100.00
45050;BME280;61798;48.048;-1.928;2023-02-15T03:48:02;101645.31;;;0.88;100.00
45050;BME280;61798;48.048;-1.928;2023-02-15T03:50:20;101633.06;;;0.73;100.00
45050;BME280;61798;48.048;-1.928;2023-02-15T03:52:46;101646.13;;;0.62;100.00
45050;BME280;61798;48.048;-1.928;2023-02-15T03:54:52;101611.59;;;0.24;100.00
45050;BME280;61798;48.048;-1.928;2023-02-15T03:56:58;101600.25;;;0.37;100.00
45050;BME280;61798;48.048;-1.928;2023-02-15T03:59:22;101654.03;;;0.62;100.00
45050;BME280;61798;48.048;-1.928;2023-02-15T04:02:11;101646.84;;;0.64;100.00
45050;BME280;61798;48.048;-1.928;2023-02-15T04:04:44;101640.16;;;0.45;100.00
45050;BME280;61798;48.048;-1.928;2023-02-15T04:06:48;101617.63;;;0.26;100.00
45050;BME280;61798;48.048;-1.928;2023-02-15T04:08:54;101641.81;;;0.33;100.00
45050;BME280;61798;48.048;-1.928;2023-02-15T04:11:19;101618.63;;;0.10;100.00
45050;BME280;61798;48.048;-1.928;2023-02-15T04:13:34;101627.81;;;0.18;100.00
45050;BME280;61798;48.048;-1.928;2023-02-15T04:15:40;101653.19;;;0.34;100.00
45050;BME280;61798;48.048;-1.928;2023-02-15T04:18:04;101634.41;;;0.25;100.00
45050;BME280;61798;48.048;-1.928;2023-02-15T04:20:10;101637.66;;;0.29;100.00
45050;BME280;61798;48.048;-1.928;2023-02-15T04:22:35;101644.34;;;0.35;100.00
45050;BME280;61798;48.048;-1.928;2023-02-15T04:24:59;101648.22;;;0.29;100.00
45050;BME280;61798;48.048;-1.928;2023-02-15T04:27:20;101650.66;;;0.32;100.00
45050;BME280;61798;48.048;-1.928;2023-02-15T04:29:27;101659.41;;;0.33;100.00
45050;BME280;61798;48.048;-1.928;2023-02-15T04:31:33;101651.72;;;0.29;100.00
45050;BME280;61798;48.048;-1.928;2023-02-15T04:33:39;101634.69;;;0.20;100.00
45050;BME280;61798;48.048;-1.928;2023-02-15T04:35:45;101651.22;;;0.37;100.00
45050;BME280;61798;48.048;-1.928;2023-02-15T04:37:51;101647.38;;;0.28;100.00
45050;BME280;61798;48.048;-1.928;2023-02-15T04:39:57;101597.19;;;0.02;100.00
45050;BME280;61798;48.048;-1.928;2023-02-15T04:42:04;101644.72;;;0.28;100.00
45050;BME280;61798;48.048;-1.928;2023-02-15T04:44:10;101650.00;;;0.28;100.00
45050;BME280;61798;48.048;-1.928;2023-02-15T04:46:16;101634.81;;;0.19;100.00
45050;BME280;61798;48.048;-1.928;2023-02-15T04:48:22;101620.66;;;0.20;100.00
45050;BME280;61798;48.048;-1.928;2023-02-15T04:50:28;101594.16;;;0.08;100.00
45050;BME280;61798;48.048;-1.928;2023-02-15T04:52:34;101608.44;;;0.19;100.00
45050;BME280;61798;48.048;-1.928;2023-02-15T04:54:40;101636.56;;;0.46;100.00
45050;BME280;61798;48.048;-1.928;2023-02-15T04:56:46;101604.84;;;0.20;100.00
45050;BME280;61798;48.048;-1.928;2023-02-15T04:58:52;101618.78;;;0.22;100.00
45050;BME280;61798;48.048;-1.928;2023-02-15T05:00:58;101630.41;;;0.33;100.00
45050;BME280;61798;48.048;-1.928;2023-02-15T05:03:04;101643.28;;;0.37;100.00
45050;BME280;61798;48.048;-1.928;2023-02-15T05:05:10;101649.22;;;0.41;100.00
45050;BME280;61798;48.048;-1.928;2023-02-15T05:07:18;101648.41;;;0.54;100.00
45050;BME280;61798;48.048;-1.928;2023-02-15T05:09:25;101637.38;;;0.34;100.00
45050;BME280;61798;48.048;-1.928;2023-02-15T05:11:31;101669.31;;;0.57;100.00
45050;BME280;61798;48.048;-1.928;2023-02-15T05:13:37;101671.09;;;0.56;100.00
45050;BME280;61798;48.048;-1.928;2023-02-15T05:15:48;101668.88;;;0.50;100.00
45050;BME280;61798;48.048;-1.928;2023-02-15T05:17:54;101648.50;;;0.52;100.00
45050;BME280;61798;48.048;-1.928;2023-02-15T05:20:00;101630.72;;;0.56;100.00
45050;BME280;61798;48.048;-1.928;2023-02-15T05:22:06;101646.13;;;0.62;100.00
45050;BME280;61798;48.048;-1.928;2023-02-15T05:24:12;101646.44;;;0.29;100.00
45050;BME280;61798;48.048;-1.928;2023-02-15T05:26:36;101663.16;;;0.43;100.00
45050;BME280;61798;48.048;-1.928;2023-02-15T05:29:01;101645.63;;;0.42;100.00
45050;BME280;61798;48.048;-1.928;2023-02-15T05:31:10;101657.97;;;0.41;100.00
45050;BME280;61798;48.048;-1.928;2023-02-15T05:33:17;101653.41;;;0.30;100.00
45050;BME280;61798;48.048;-1.928;2023-02-15T05:35:23;101663.09;;;0.30;100.00
45050;BME280;61798;48.048;-1.928;2023-02-15T05:37:28;101647.69;;;0.24;100.00
45050;BME280;61798;48.048;-1.928;2023-02-15T05:39:34;101649.84;;;0.31;100.00
45050;BME280;61798;48.048;-1.928;2023-02-15T05:41:40;101587.88;;;-0.04;100.00
45050;BME280;61798;48.048;-1.928;2023-02-15T05:43:47;101650.84;;;0.29;100.00
45050;BME280;61798;48.048;-1.928;2023-02-15T05:45:54;101635.28;;;0.11;100.00
45050;BME280;61798;48.048;-1.928;2023-02-15T05:48:00;101648.19;;;0.16;100.00
45050;BME280;61798;48.048;-1.928;2023-02-15T05:50:07;101670.00;;;0.18;100.00
45050;BME280;61798;48.048;-1.928;2023-02-15T05:52:13;101656.03;;;0.03;100.00
45050;BME280;61798;48.048;-1.928;2023-02-15T05:54:19;101653.16;;;-0.22;100.00
45050;BME280;61798;48.048;-1.928;2023-02-15T05:56:25;101654.28;;;-0.26;100.00
45050;BME280;61798;48.048;-1.928;2023-02-15T05:58:34;101684.38;;;-0.16;100.00
45050;BME280;61798;48.048;-1.928;2023-02-15T06:00:40;101680.06;;;-0.32;100.00
45050;BME280;61798;48.048;-1.928;2023-02-15T06:02:46;101665.19;;;-0.47;100.00
45050;BME280;61798;48.048;-1.928;2023-02-15T06:04:52;101658.06;;;-0.45;100.00
45050;BME280;61798;48.048;-1.928;2023-02-15T06:06:58;101664.56;;;-0.36;100.00
45050;BME280;61798;48.048;-1.928;2023-02-15T06:09:04;101658.78;;;-0.43;100.00
45050;BME280;61798;48.048;-1.928;2023-02-15T06:11:10;101623.06;;;-0.77;100.00
45050;BME280;61798;48.048;-1.928;2023-02-15T06:13:16;101663.59;;;-0.50;100.00
45050;BME280;61798;48.048;-1.928;2023-02-15T06:15:22;101678.84;;;-0.26;100.00
45050;BME280;61798;48.048;-1.928;2023-02-15T06:17:28;101676.84;;;-0.22;100.00
45050;BME280;61798;48.048;-1.928;2023-02-15T06:19:34;101681.75;;;-0.30;100.00
45050;BME280;61798;48.048;-1.928;2023-02-15T06:21:40;101664.81;;;-0.56;100.00
45050;BME280;61798;48.048;-1.928;2023-02-15T06:23:46;101672.06;;;-0.45;100.00
45050;BME280;61798;48.048;-1.928;2023-02-15T06:25:52;101689.06;;;-0.36;100.00
45050;BME280;61798;48.048;-1.928;2023-02-15T06:28:00;101686.09;;;-0.44;100.00
45050;BME280;61798;48.048;-1.928;2023-02-15T06:30:07;101688.03;;;-0.48;100.00
45050;BME280;61798;48.048;-1.928;2023-02-15T06:32:13;101677.81;;;-0.52;100.00
45050;BME280;61798;48.048;-1.928;2023-02-15T06:34:19;101694.81;;;-0.44;100.00
45050;BME280;61798;48.048;-1.928;2023-02-15T06:36:25;101695.09;;;-0.63;100.00
45050;BME280;61798;48.048;-1.928;2023-02-15T06:38:31;101696.41;;;-0.56;100.00
45050;BME280;61798;48.048;-1.928;2023-02-15T06:40:37;101672.44;;;-0.80;100.00
45050;BME280;61798;48.048;-1.928;2023-02-15T06:42:43;101652.09;;;-1.08;100.00
45050;BME280;61798;48.048;-1.928;2023-02-15T06:44:49;101686.78;;;-0.86;100.00
45050;BME280;61798;48.048;-1.928;2023-02-15T06:46:55;101706.00;;;-0.69;100.00
45050;BME280;61798;48.048;-1.928;2023-02-15T06:49:01;101677.97;;;-0.85;100.00
45050;BME280;61798;48.048;-1.928;2023-02-15T06:51:08;101711.47;;;-0.72;100.00
45050;BME280;61798;48.048;-1.928;2023-02-15T06:53:13;101659.00;;;-1.07;100.00
45050;BME280;61798;48.048;-1.928;2023-02-15T06:55:19;101656.09;;;-1.17;100.00
45050;BME280;61798;48.048;-1.928;2023-02-15T06:57:25;101702.38;;;-0.83;100.00
45050;BME280;61798;48.048;-1.928;2023-02-15T06:59:31;101702.91;;;-0.76;100.00
45050;BME280;61798;48.048;-1.928;2023-02-15T07:01:37;101722.16;;;-0.76;100.00
45050;BME280;61798;48.048;-1.928;2023-02-15T07:03:43;101700.88;;;-0.87;100.00
45050;BME280;61798;48.048;-1.928;2023-02-15T07:05:54;101718.59;;;-0.75;100.00
45050;BME280;61798;48.048;-1.928;2023-02-15T07:08:00;101707.59;;;-0.81;100.00
45050;BME280;61798;48.048;-1.928;2023-02-15T07:10:07;101710.66;;;-0.89;100.00
45050;BME280;61798;48.048;-1.928;2023-02-15T07:12:13;101720.06;;;-0.85;100.00
45050;BME280;61798;48.048;-1.928;2023-02-15T07:14:37;101728.94;;;-1.02;100.00
45050;BME280;61798;48.048;-1.928;2023-02-15T07:16:44;101741.63;;;-1.09;100.00
45050;BME280;61798;48.048;-1.928;2023-02-15T07:18:50;101714.31;;;-1.23;100.00
45050;BME280;61798;48.048;-1.928;2023-02-15T07:20:56;101690.31;;;-1.33;100.00
45050;BME280;61798;48.048;-1.928;2023-02-15T07:23:02;101716.44;;;-1.30;100.00
45050;BME280;61798;48.048;-1.928;2023-02-15T07:25:11;101748.84;;;-1.13;100.00
45050;BME280;61798;48.048;-1.928;2023-02-15T07:27:17;101742.06;;;-1.17;100.00
45050;BME280;61798;48.048;-1.928;2023-02-15T07:29:23;101742.25;;;-1.20;100.00
45050;BME280;61798;48.048;-1.928;2023-02-15T07:31:30;101738.16;;;-1.26;100.00
45050;BME280;61798;48.048;-1.928;2023-02-15T07:33:36;101739.59;;;-1.20;100.00
45050;BME280;61798;48.048;-1.928;2023-02-15T07:35:53;101732.59;;;-1.36;100.00
45050;BME280;61798;48.048;-1.928;2023-02-15T07:38:00;101772.03;;;-1.20;100.00
45050;BME280;61798;48.048;-1.928;2023-02-15T07:40:06;101757.00;;;-1.18;100.00
45050;BME280;61798;48.048;-1.928;2023-02-15T07:42:12;101747.31;;;-1.17;100.00
45050;BME280;61798;48.048;-1.928;2023-02-15T07:44:18;101769.63;;;-1.08;100.00
45050;BME280;61798;48.048;-1.928;2023-02-15T07:46:24;101761.75;;;-1.08;100.00
45050;BME280;61798;48.048;-1.928;2023-02-15T07:48:31;101759.09;;;-1.08;100.00
45050;BME280;61798;48.048;-1.928;2023-02-15T07:50:37;101769.75;;;-0.95;100.00
45050;BME280;61798;48.048;-1.928;2023-02-15T07:52:43;101744.25;;;-1.09;100.00
45050;BME280;61798;48.048;-1.928;2023-02-15T07:54:49;101731.53;;;-1.17;100.00
45050;BME280;61798;48.048;-1.928;2023-02-15T07:56:56;101768.59;;;-0.75;100.00
45050;BME280;61798;48.048;-1.928;2023-02-15T07:59:02;101762.22;;;-0.70;100.00
45050;BME280;61798;48.048;-1.928;2023-02-15T08:01:10;101714.41;;;-0.93;100.00
45050;BME280;61798;48.048;-1.928;2023-02-15T08:03:16;101747.84;;;-0.65;100.00
45050;BME280;61798;48.048;-1.928;2023-02-15T08:05:22;101734.97;;;-0.55;100.00
45050;BME280;61798;48.048;-1.928;2023-02-15T08:07:28;101766.06;;;-0.30;100.00
45050;BME280;61798;48.048;-1.928;2023-02-15T08:09:34;101747.13;;;-0.37;100.00
45050;BME280;61798;48.048;-1.928;2023-02-15T08:11:40;101768.31;;;-0.09;100.00
45050;BME280;61798;48.048;-1.928;2023-02-15T08:13:49;101757.88;;;-0.11;100.00
45050;BME280;61798;48.048;-1.928;2023-02-15T08:16:01;101750.44;;;-0.19;100.00
45050;BME280;61798;48.048;-1.928;2023-02-15T08:18:07;101755.22;;;-0.11;100.00
45050;BME280;61798;48.048;-1.928;2023-02-15T08:20:12;101758.34;;;0.10;100.00
45050;BME280;61798;48.048;-1.928;2023-02-15T08:22:18;101753.34;;;0.06;100.00
45050;BME280;61798;48.048;-1.928;2023-02-15T08:24:27;101758.16;;;0.14;100.00
45050;BME280;61798;48.048;-1.928;2023-02-15T08:26:34;101771.50;;;0.25;100.00
45050;BME280;61798;48.048;-1.928;2023-02-15T08:28:41;101751.00;;;0.16;100.00
45050;BME280;61798;48.048;-1.928;2023-02-15T08:30:46;101753.97;;;0.24;100.00
45050;BME280;61798;48.048;-1.928;2023-02-15T08:32:52;101763.56;;;0.40;100.00
45050;BME280;61798;48.048;-1.928;2023-02-15T08:34:58;101752.91;;;0.41;100.00
45050;BME280;61798;48.048;-1.928;2023-02-15T08:37:04;101760.78;;;0.56;100.00
45050;BME280;61798;48.048;-1.928;2023-02-15T08:39:12;101749.91;;;0.48;100.00
45050;BME280;61798;48.048;-1.928;2023-02-15T08:41:24;101755.81;;;0.51;100.00
45050;BME280;61798;48.048;-1.928;2023-02-15T08:43:30;101736.41;;;0.52;100.00
45050;BME280;61798;48.048;-1.928;2023-02-15T08:45:36;101753.06;;;0.81;100.00
45050;BME280;61798;48.048;-1.928;2023-02-15T08:47:42;101719.97;;;0.62;100.00
45050;BME280;61798;48.048;-1.928;2023-02-15T08:49:48;101717.94;;;0.52;100.00
45050;BME280;61798;48.048;-1.928;2023-02-15T08:51:54;101717.75;;;0.56;100.00
45050;BME280;61798;48.048;-1.928;2023-02-15T08:54:06;101696.09;;;0.50;100.00
45050;BME280;61798;48.048;-1.928;2023-02-15T08:56:14;101724.25;;;0.78;100.00
45050;BME280;61798;48.048;-1.928;2023-02-15T08:58:20;101752.28;;;0.93;100.00
45050;BME280;61798;48.048;-1.928;2023-02-15T09:00:26;101743.06;;;1.27;100.00
45050;BME280;61798;48.048;-1.928;2023-02-15T09:02:32;101750.53;;;1.07;100.00
45050;BME280;61798;48.048;-1.928;2023-02-15T09:04:38;101704.84;;;0.79;100.00
45050;BME280;61798;48.048;-1.928;2023-02-15T09:06:45;101740.16;;;1.04;100.00
45050;BME280;61798;48.048;-1.928;2023-02-15T09:08:52;101750.13;;;1.26;100.00
45050;BME280;61798;48.048;-1.928;2023-02-15T09:11:19;101758.56;;;1.19;100.00
45050;BME280;61798;48.048;-1.928;2023-02-15T09:13:29;101755.94;;;1.19;100.00
45050;BME280;61798;48.048;-1.928;2023-02-15T09:15:35;101742.91;;;1.15;100.00
45050;BME280;61798;48.048;-1.928;2023-02-15T09:17:41;101714.38;;;1.08;100.00
45050;BME280;61798;48.048;-1.928;2023-02-15T09:19:46;101722.63;;;1.03;100.00
45050;BME280;61798;48.048;-1.928;2023-02-15T09:21:53;101774.78;;;1.53;100.00
45050;BME280;61798;48.048;-1.928;2023-02-15T09:24:05;101750.59;;;1.46;100.00
45050;BME280;61798;48.048;-1.928;2023-02-15T09:26:14;101777.84;;;1.73;100.00
45050;BME280;61798;48.048;-1.928;2023-02-15T09:28:20;101760.19;;;1.74;100.00
45050;BME280;61798;48.048;-1.928;2023-02-15T09:30:26;101773.50;;;1.98;100.00
45050;BME280;61798;48.048;-1.928;2023-02-15T09:32:32;101776.47;;;1.94;100.00
45050;BME280;61798;48.048;-1.928;2023-02-15T09:34:39;101775.63;;;2.06;100.00
45050;BME280;61798;48.048;-1.928;2023-02-15T09:36:46;101772.44;;;2.14;100.00
45050;BME280;61798;48.048;-1.928;2023-02-15T09:39:17;101777.09;;;2.48;100.00
45050;BME280;61798;48.048;-1.928;2023-02-15T09:44:11;101793.19;;;2.58;100.00
45050;BME280;61798;48.048;-1.928;2023-02-15T09:49:02;101761.34;;;2.71;100.00
45050;BME280;61798;48.048;-1.928;2023-02-15T10:01:26;101789.31;;;3.48;100.00
45050;BME280;61798;48.048;-1.928;2023-02-15T10:06:31;101793.59;;;3.85;100.00
45050;BME280;61798;48.048;-1.928;2023-02-15T10:11:33;101763.47;;;3.98;100.00
45050;BME280;61798;48.048;-1.928;2023-02-15T10:16:56;101771.41;;;4.32;100.00
45050;BME280;61798;48.048;-1.928;2023-02-15T10:19:14;101789.47;;;4.39;100.00
45050;BME280;61798;48.048;-1.928;2023-02-15T10:21:39;101790.75;;;4.68;100.00
45050;BME280;61798;48.048;-1.928;2023-02-15T10:24:06;101788.00;;;5.24;100.00
45050;BME280;61798;48.048;-1.928;2023-02-15T10:26:20;101793.84;;;4.84;100.00
45050;BME280;61798;48.048;-1.928;2023-02-15T10:28:52;101789.28;;;5.08;100.00
45050;BME280;61798;48.048;-1.928;2023-02-15T10:31:11;101758.50;;;5.05;100.00
45050;BME280;61798;48.048;-1.928;2023-02-15T10:33:40;101791.56;;;5.34;100.00
45050;BME280;61798;48.048;-1.928;2023-02-15T10:36:00;101783.66;;;5.23;100.00
45050;BME280;61798;48.048;-1.928;2023-02-15T10:45:24;101782.69;;;5.98;100.00
45050;BME280;61798;48.048;-1.928;2023-02-15T10:47:55;101775.81;;;5.96;100.00
45050;BME280;61798;48.048;-1.928;2023-02-15T10:55:20;101771.34;;;6.28;100.00
45050;BME280;61798;48.048;-1.928;2023-02-15T11:00:17;101763.66;;;6.44;100.00
45050;BME280;61798;48.048;-1.928;2023-02-15T11:03:11;101778.69;;;6.65;100.00
45050;BME280;61798;48.048;-1.928;2023-02-15T11:06:19;101777.84;;;6.75;100.00
45050;BME280;61798;48.048;-1.928;2023-02-15T11:08:07;101775.88;;;6.77;100.00
45050;BME280;61798;48.048;-1.928;2023-02-15T11:12:26;101771.41;;;6.97;100.00
45050;BME280;61798;48.048;-1.928;2023-02-15T11:14:57;101767.03;;;7.36;100.00
45050;BME280;61798;48.048;-1.928;2023-02-15T11:17:12;101764.81;;;7.12;100.00
45050;BME280;61798;48.048;-1.928;2023-02-15T11:19:27;101762.16;;;7.02;100.00
45050;BME280;61798;48.048;-1.928;2023-02-15T11:21:42;101762.28;;;7.10;100.00
45050;BME280;61798;48.048;-1.928;2023-02-15T11:23:51;101758.47;;;7.13;100.00
45050;BME280;61798;48.048;-1.928;2023-02-15T11:26:10;101715.59;;;6.86;100.00
45050;BME280;61798;48.048;-1.928;2023-02-15T11:28:25;101747.56;;;7.16;100.00
45050;BME280;61798;48.048;-1.928;2023-02-15T11:30:44;101757.31;;;7.45;100.00
45050;BME280;61798;48.048;-1.928;2023-02-15T11:32:54;101747.47;;;7.56;100.00
45050;BME280;61798;48.048;-1.928;2023-02-15T11:37:15;101730.75;;;7.54;100.00
45050;BME280;61798;48.048;-1.928;2023-02-15T11:39:24;101735.25;;;7.53;100.00
45050;BME280;61798;48.048;-1.928;2023-02-15T11:41:38;101729.25;;;7.41;100.00
45050;BME280;61798;48.048;-1.928;2023-02-15T11:43:50;101734.75;;;7.78;100.00
45050;BME280;61798;48.048;-1.928;2023-02-15T11:46:00;101714.56;;;7.65;100.00
45050;BME280;61798;48.048;-1.928;2023-02-15T11:48:11;101700.22;;;7.38;100.00
45050;BME280;61798;48.048;-1.928;2023-02-15T11:50:22;101744.38;;;7.89;100.00
45050;BME280;61798;48.048;-1.928;2023-02-15T11:52:29;101716.13;;;7.68;100.00
45050;BME280;61798;48.048;-1.928;2023-02-15T11:54:37;101738.69;;;7.74;100.00
45050;BME280;61798;48.048;-1.928;2023-02-15T11:56:45;101728.81;;;8.12;100.00
45050;BME280;61798;48.048;-1.928;2023-02-15T12:01:23;101726.97;;;8.13;100.00
45050;BME280;61798;48.048;-1.928;2023-02-15T12:03:50;101729.94;;;8.38;100.00
45050;BME280;61798;48.048;-1.928;2023-02-15T12:06:02;101678.16;;;8.02;100.00
45050;BME280;61798;48.048;-1.928;2023-02-15T12:08:16;101740.84;;;8.45;100.00
45050;BME280;61798;48.048;-1.928;2023-02-15T12:10:29;101696.94;;;8.29;100.00
45050;BME280;61798;48.048;-1.928;2023-02-15T12:12:37;101703.13;;;8.48;100.00
45050;BME280;61798;48.048;-1.928;2023-02-15T12:14:49;101671.78;;;8.69;100.00
45050;BME280;61798;48.048;-1.928;2023-02-15T12:16:56;101653.38;;;8.29;100.00
45050;BME280;61798;48.048;-1.928;2023-02-15T12:19:02;101705.81;;;8.48;100.00
45050;BME280;61798;48.048;-1.928;2023-02-15T12:21:29;101676.41;;;8.48;100.00
45050;BME280;61798;48.048;-1.928;2023-02-15T12:23:53;101709.13;;;8.78;100.00